This is the latest recevied weather packets stored in our database for station/object DG1UDO-13. If no packets are shown the sender has not sent any weather packets the latest 10 day(s).
| Time | Temp. | Humidity | Pressure | Rain* | Wind** | Luminosity | Snow |
|---|---|---|---|---|---|---|---|
| 1777647901 | 23.89° C | 31% | 1025.9 hPa | - | - | - | - |
| 1777646101 | 23.33° C | 35% | 1026.1 hPa | - | - | - | - |
| 1777644301 | 23.33° C | 33% | 1026.5 hPa | - | - | - | - |
| 1777642501 | 23.89° C | 32% | 1026.9 hPa | - | - | - | - |
| 1777640700 | 23.89° C | 33% | 1027.5 hPa | - | - | - | - |
| 1777638900 | 22.22° C | 35% | 1027.7 hPa | - | - | - | - |
| 1777637101 | 21.67° C | 35% | 1028.2 hPa | - | - | - | - |
| 1777635301 | 20.56° C | 39% | 1028.5 hPa | - | - | - | - |
| 1777633501 | 21.11° C | 39% | 1028.9 hPa | - | - | - | - |
| 1777631701 | 20° C | 42% | 1029.1 hPa | - | - | - | - |
| 1777629901 | 18.89° C | 41% | 1029.5 hPa | - | - | - | - |
| 1777628101 | 19.44° C | 41% | 1029.7 hPa | - | - | - | - |
| 1777626301 | 18.33° C | 43% | 1029.9 hPa | - | - | - | - |
| 1777624500 | 18.33° C | 46% | 1030.2 hPa | - | - | - | - |
| 1777622701 | 17.22° C | 48% | 1030.4 hPa | - | - | - | - |
| 1777620901 | 16.11° C | 50% | 1030.3 hPa | - | - | - | - |
| 1777619101 | 15° C | 56% | 1030.3 hPa | - | - | - | - |
| 1777617301 | 13.89° C | 59% | 1030.4 hPa | - | - | - | - |
| 1777615501 | 10° C | 78% | 1030.3 hPa | - | - | - | - |
| 1777613701 | 9.44° C | 77% | 1030.3 hPa | - | - | - | - |
| 1777611901 | 6.11° C | 86% | 1030.2 hPa | - | - | - | - |
| 1777610101 | 5.56° C | 89% | 1030.1 hPa | - | - | - | - |
| 1777608301 | 5° C | 88% | 1029.8 hPa | - | - | - | - |
| 1777606501 | 5.56° C | 88% | 1030.1 hPa | - | - | - | - |
| 1777604701 | 6.11° C | 84% | 1030.2 hPa | - | - | - | - |
* Rain since midnight (hover to see other rain measurements)
** Current wind speed in m/s (hover to see current wind gust speed)